Roeulx, Belgium
Current Conditions -  °F | °C
As of 1:03 PM on Thursday 29 Jan 2015 (Local Time) from EBCV Reporting Station
Broken Clouds Broken Clouds  
Wind Chill: 30°   Ceiling: 1700
Heat Index: 39°   Visibility: 6mi
Dew Point: 36°   Wind: 16mph
Humidity: 87%   Direction: 210°SSW
Pressure: 29.21"   Gusts: NA
Location:  50.5°N, 4.11°E
Report Text: EBCV 291203Z AUTO 21014KT 9999 SCT012/// BKN017/// BKN042/// 04/02 Q0989 GRN
Loading
Personal Weather Stations






























Interactive Weather Map New forecast layout! Learn more

10-Day Weather Forecast

Advertisements
Track Severe Weather on mobile